Kirby, Montana
Current Conditions -  °F | °C
As of 1:53 AM on Thursday 23 Oct 2014 (Local Time) from KSHR Reporting Station
Clear Clear  
Wind Chill: 33°   Ceiling: Unl
Heat Index: 33°   Visibility: 10mi
Dew Point: 22°   Wind: 3mph
Humidity: 64%   Direction: 220°SW
Pressure: 29.97"   Gusts: NA
Location:  45.5176°N, 106.875°W
Report Text: KSHR 230753Z AUTO 22003KT 10SM CLR 01/M06 A2997 RMK AO2 SLP151 T00061056 TSNO
Loading
Personal Weather Stations






























Interactive Weather Map
Tropical Storm Tracking
New forecast layout! Learn more

10-Day Weather Forecast

Advertisements
Track Severe Weather on mobile